Accueil
METAR-TAF:

METAR-TAF

Aéroports :

Aéroport de Stavanger

Stavanger, Norvège

latitude: 58-53N, longitude: 005-38E, altitude: 0 m

Observation

Le bulletin a été fait il y a 18 minutes, à 16:20 UTC
Vent 10 kt de sud-ouest
Température 22°C
Humidité 50%
Pression 1015 hPa
Visibilité 10 km ou plus
pas de nuages en-dessous de 1500 mètres et pas de cumulonimbus.

METAR: ENZV 161620Z 22010KT CAVOK 22/11 Q1015 NOSIG

Heure: 18:38 (16:38 UTC)

Prévision

Prévision valable du 16 à 12 UTC au 17 à 12 UTC
Vent 12 kt de sud/sud-ouest
Visibilité 10 km ou plus
pas de nuages en-dessous de 1500 mètres et pas de cumulonimbus.
Evoluant progressivement
du 16 à 17 UTC au 16 à 19 UTC
Vent 5 kt de direction variable

TAF: ENZV 1612/1712 20012KT CAVOK BECMG 1617/1619 VRB05KT

Observations et prévisions météorologiques de plus de 4000 aéroports (messages METAR et TAF).

Les stations disponibles sont représentées par des disques jaunes et rouges sur la carte.

Passer la souris dessus pour voir le nom de la station.

Cliquer dessus pour voir les observations et prévisions météorologiques.

Pour changer de carte: cliquez sur les boutons verts avec une croix noire pour zoomer, sur le bouton vert avec un tiret pour effectuer un zoom arrière, ou sur les flèches vertes pour les cartes adjacentes.


METAR-TAF: